sensor_id;sensor_type;location;lat;lon;timestamp;P1;durP1;ratioP1;P2;durP2;ratioP2
9972;SDS011;5027;53.560;10.062;2023-07-29T00:01:11;9.33;;;8.00;;
9972;SDS011;5027;53.560;10.062;2023-07-29T00:03:37;9.67;;;7.10;;
9972;SDS011;5027;53.560;10.062;2023-07-29T00:06:04;8.47;;;7.57;;
9972;SDS011;5027;53.560;10.062;2023-07-29T00:08:31;8.43;;;7.03;;
9972;SDS011;5027;53.560;10.062;2023-07-29T00:10:58;8.23;;;6.33;;
9972;SDS011;5027;53.560;10.062;2023-07-29T00:13:24;10.30;;;7.13;;
9972;SDS011;5027;53.560;10.062;2023-07-29T00:15:53;7.90;;;6.80;;
9972;SDS011;5027;53.560;10.062;2023-07-29T00:18:21;8.27;;;6.70;;
9972;SDS011;5027;53.560;10.062;2023-07-29T00:20:49;6.30;;;5.80;;
9972;SDS011;5027;53.560;10.062;2023-07-29T00:23:17;6.40;;;5.90;;
9972;SDS011;5027;53.560;10.062;2023-07-29T00:25:45;5.97;;;5.27;;
9972;SDS011;5027;53.560;10.062;2023-07-29T00:28:12;5.90;;;5.10;;
9972;SDS011;5027;53.560;10.062;2023-07-29T00:30:39;6.57;;;5.37;;
9972;SDS011;5027;53.560;10.062;2023-07-29T00:33:06;9.67;;;5.13;;
9972;SDS011;5027;53.560;10.062;2023-07-29T00:35:32;8.97;;;5.10;;
9972;SDS011;5027;53.560;10.062;2023-07-29T00:38:00;6.30;;;5.13;;
9972;SDS011;5027;53.560;10.062;2023-07-29T00:40:28;11.73;;;4.77;;
9972;SDS011;5027;53.560;10.062;2023-07-29T00:42:55;5.50;;;4.87;;
9972;SDS011;5027;53.560;10.062;2023-07-29T00:45:22;5.60;;;5.10;;
9972;SDS011;5027;53.560;10.062;2023-07-29T00:47:51;5.60;;;5.10;;
9972;SDS011;5027;53.560;10.062;2023-07-29T00:50:18;5.43;;;4.93;;
9972;SDS011;5027;53.560;10.062;2023-07-29T00:52:45;6.50;;;5.10;;
9972;SDS011;5027;53.560;10.062;2023-07-29T00:55:12;5.40;;;4.90;;
9972;SDS011;5027;53.560;10.062;2023-07-29T00:57:39;5.93;;;5.03;;
9972;SDS011;5027;53.560;10.062;2023-07-29T01:00:06;5.93;;;4.60;;
9972;SDS011;5027;53.560;10.062;2023-07-29T01:02:35;7.30;;;4.80;;
9972;SDS011;5027;53.560;10.062;2023-07-29T01:05:02;5.07;;;4.67;;
9972;SDS011;5027;53.560;10.062;2023-07-29T01:12:47;9.13;;;5.33;;
9972;SDS011;5027;53.560;10.062;2023-07-29T01:15:23;7.93;;;7.23;;
9972;SDS011;5027;53.560;10.062;2023-07-29T01:17:55;5.20;;;4.70;;
9972;SDS011;5027;53.560;10.062;2023-07-29T01:20:32;5.47;;;4.93;;
9972;SDS011;5027;53.560;10.062;2023-07-29T01:23:00;7.20;;;5.17;;
9972;SDS011;5027;53.560;10.062;2023-07-29T01:25:26;5.37;;;4.87;;
9972;SDS011;5027;53.560;10.062;2023-07-29T01:27:53;6.13;;;5.40;;
9972;SDS011;5027;53.560;10.062;2023-07-29T01:30:22;7.40;;;5.40;;
9972;SDS011;5027;53.560;10.062;2023-07-29T01:35:58;5.43;;;5.03;;
9972;SDS011;5027;53.560;10.062;2023-07-29T01:38:33;5.87;;;5.33;;
9972;SDS011;5027;53.560;10.062;2023-07-29T01:41:02;5.37;;;4.90;;
9972;SDS011;5027;53.560;10.062;2023-07-29T01:43:32;5.73;;;5.23;;
9972;SDS011;5027;53.560;10.062;2023-07-29T01:46:00;5.60;;;5.10;;
9972;SDS011;5027;53.560;10.062;2023-07-29T01:48:27;5.70;;;5.30;;
9972;SDS011;5027;53.560;10.062;2023-07-29T01:50:56;5.73;;;5.23;;
9972;SDS011;5027;53.560;10.062;2023-07-29T01:53:23;5.40;;;5.00;;
9972;SDS011;5027;53.560;10.062;2023-07-29T01:55:50;5.37;;;4.97;;
9972;SDS011;5027;53.560;10.062;2023-07-29T01:58:17;8.67;;;7.53;;
9972;SDS011;5027;53.560;10.062;2023-07-29T02:00:46;8.63;;;6.60;;
9972;SDS011;5027;53.560;10.062;2023-07-29T02:03:13;8.53;;;6.77;;
9972;SDS011;5027;53.560;10.062;2023-07-29T02:05:40;6.97;;;6.23;;
9972;SDS011;5027;53.560;10.062;2023-07-29T02:08:08;6.87;;;6.17;;
9972;SDS011;5027;53.560;10.062;2023-07-29T02:10:37;6.17;;;5.67;;
9972;SDS011;5027;53.560;10.062;2023-07-29T02:13:03;6.50;;;6.00;;
9972;SDS011;5027;53.560;10.062;2023-07-29T02:15:30;6.60;;;6.03;;
9972;SDS011;5027;53.560;10.062;2023-07-29T02:17:57;6.97;;;6.37;;
9972;SDS011;5027;53.560;10.062;2023-07-29T02:20:25;6.83;;;6.20;;
9972;SDS011;5027;53.560;10.062;2023-07-29T02:22:52;8.10;;;7.27;;
9972;SDS011;5027;53.560;10.062;2023-07-29T02:25:19;6.70;;;6.10;;
9972;SDS011;5027;53.560;10.062;2023-07-29T02:27:45;9.97;;;6.30;;
9972;SDS011;5027;53.560;10.062;2023-07-29T02:30:12;6.73;;;6.13;;
9972;SDS011;5027;53.560;10.062;2023-07-29T02:32:39;5.97;;;5.47;;
9972;SDS011;5027;53.560;10.062;2023-07-29T02:35:06;6.93;;;6.33;;
9972;SDS011;5027;53.560;10.062;2023-07-29T02:37:33;7.30;;;6.70;;
9972;SDS011;5027;53.560;10.062;2023-07-29T02:40:00;6.47;;;5.93;;
9972;SDS011;5027;53.560;10.062;2023-07-29T02:42:27;6.70;;;6.10;;
9972;SDS011;5027;53.560;10.062;2023-07-29T02:44:53;6.80;;;6.27;;
9972;SDS011;5027;53.560;10.062;2023-07-29T02:47:20;7.10;;;6.50;;
9972;SDS011;5027;53.560;10.062;2023-07-29T02:49:47;6.87;;;6.37;;
9972;SDS011;5027;53.560;10.062;2023-07-29T02:52:13;7.30;;;6.80;;
9972;SDS011;5027;53.560;10.062;2023-07-29T02:54:40;7.33;;;6.63;;
9972;SDS011;5027;53.560;10.062;2023-07-29T02:57:07;7.33;;;6.63;;
9972;SDS011;5027;53.560;10.062;2023-07-29T02:59:33;6.73;;;6.23;;
9972;SDS011;5027;53.560;10.062;2023-07-29T03:02:00;7.27;;;6.67;;
9972;SDS011;5027;53.560;10.062;2023-07-29T03:04:27;7.60;;;6.90;;
9972;SDS011;5027;53.560;10.062;2023-07-29T03:06:55;7.90;;;7.10;;
9972;SDS011;5027;53.560;10.062;2023-07-29T03:09:22;9.30;;;6.93;;
9972;SDS011;5027;53.560;10.062;2023-07-29T03:11:48;8.20;;;6.93;;
9972;SDS011;5027;53.560;10.062;2023-07-29T03:14:15;8.03;;;7.17;;
9972;SDS011;5027;53.560;10.062;2023-07-29T03:16:42;7.00;;;6.40;;
9972;SDS011;5027;53.560;10.062;2023-07-29T03:19:08;7.73;;;7.13;;
9972;SDS011;5027;53.560;10.062;2023-07-29T03:21:35;7.53;;;6.83;;
9972;SDS011;5027;53.560;10.062;2023-07-29T03:24:02;10.33;;;6.80;;
9972;SDS011;5027;53.560;10.062;2023-07-29T03:26:29;7.37;;;6.83;;
9972;SDS011;5027;53.560;10.062;2023-07-29T03:28:56;7.57;;;6.97;;
9972;SDS011;5027;53.560;10.062;2023-07-29T03:31:22;7.60;;;6.90;;
9972;SDS011;5027;53.560;10.062;2023-07-29T03:33:49;7.43;;;6.83;;
9972;SDS011;5027;53.560;10.062;2023-07-29T03:36:16;7.73;;;6.97;;
9972;SDS011;5027;53.560;10.062;2023-07-29T03:38:43;7.47;;;6.97;;
9972;SDS011;5027;53.560;10.062;2023-07-29T03:41:11;8.60;;;7.80;;
9972;SDS011;5027;53.560;10.062;2023-07-29T03:43:38;8.27;;;7.53;;
9972;SDS011;5027;53.560;10.062;2023-07-29T03:46:04;8.83;;;8.03;;
9972;SDS011;5027;53.560;10.062;2023-07-29T03:48:34;8.50;;;7.80;;
9972;SDS011;5027;53.560;10.062;2023-07-29T03:51:01;8.10;;;7.40;;
9972;SDS011;5027;53.560;10.062;2023-07-29T03:53:28;9.07;;;8.17;;
9972;SDS011;5027;53.560;10.062;2023-07-29T03:55:54;10.13;;;8.97;;
9972;SDS011;5027;53.560;10.062;2023-07-29T03:58:21;9.90;;;9.10;;
9972;SDS011;5027;53.560;10.062;2023-07-29T04:00:48;12.73;;;8.67;;
9972;SDS011;5027;53.560;10.062;2023-07-29T04:03:15;10.00;;;9.20;;
9972;SDS011;5027;53.560;10.062;2023-07-29T04:05:42;12.27;;;11.10;;
9972;SDS011;5027;53.560;10.062;2023-07-29T04:08:09;11.73;;;10.73;;
9972;SDS011;5027;53.560;10.062;2023-07-29T04:10:36;12.30;;;11.27;;
9972;SDS011;5027;53.560;10.062;2023-07-29T04:13:04;13.73;;;12.53;;
9972;SDS011;5027;53.560;10.062;2023-07-29T04:15:31;13.60;;;12.33;;
9972;SDS011;5027;53.560;10.062;2023-07-29T04:17:58;17.17;;;11.77;;
9972;SDS011;5027;53.560;10.062;2023-07-29T04:20:24;13.73;;;12.43;;
9972;SDS011;5027;53.560;10.062;2023-07-29T04:22:51;13.20;;;12.10;;
9972;SDS011;5027;53.560;10.062;2023-07-29T04:25:18;13.60;;;12.27;;
9972;SDS011;5027;53.560;10.062;2023-07-29T04:27:45;13.07;;;11.87;;
9972;SDS011;5027;53.560;10.062;2023-07-29T04:30:11;12.90;;;11.70;;
9972;SDS011;5027;53.560;10.062;2023-07-29T04:32:38;12.70;;;11.60;;
9972;SDS011;5027;53.560;10.062;2023-07-29T04:35:06;12.77;;;11.67;;
9972;SDS011;5027;53.560;10.062;2023-07-29T04:37:35;13.97;;;12.67;;
9972;SDS011;5027;53.560;10.062;2023-07-29T04:40:02;17.70;;;15.97;;
9972;SDS011;5027;53.560;10.062;2023-07-29T04:42:29;16.73;;;15.17;;
9972;SDS011;5027;53.560;10.062;2023-07-29T04:44:56;15.73;;;14.33;;
9972;SDS011;5027;53.560;10.062;2023-07-29T04:47:23;18.57;;;16.83;;
9972;SDS011;5027;53.560;10.062;2023-07-29T04:49:52;19.67;;;17.77;;
9972;SDS011;5027;53.560;10.062;2023-07-29T04:52:19;18.93;;;17.03;;
9972;SDS011;5027;53.560;10.062;2023-07-29T04:54:46;18.23;;;16.63;;
9972;SDS011;5027;53.560;10.062;2023-07-29T04:57:13;18.23;;;16.60;;
9972;SDS011;5027;53.560;10.062;2023-07-29T04:59:39;20.27;;;18.47;;
9972;SDS011;5027;53.560;10.062;2023-07-29T05:02:06;19.57;;;17.70;;
9972;SDS011;5027;53.560;10.062;2023-07-29T05:04:33;19.87;;;17.23;;
9972;SDS011;5027;53.560;10.062;2023-07-29T05:07:00;20.53;;;18.73;;
9972;SDS011;5027;53.560;10.062;2023-07-29T05:09:27;21.23;;;19.30;;
9972;SDS011;5027;53.560;10.062;2023-07-29T05:11:54;22.87;;;20.67;;
9972;SDS011;5027;53.560;10.062;2023-07-29T05:14:21;22.03;;;20.10;;
9972;SDS011;5027;53.560;10.062;2023-07-29T05:16:48;23.17;;;21.03;;
9972;SDS011;5027;53.560;10.062;2023-07-29T05:19:15;26.47;;;24.10;;
9972;SDS011;5027;53.560;10.062;2023-07-29T05:21:42;27.43;;;25.10;;
9972;SDS011;5027;53.560;10.062;2023-07-29T05:24:08;26.77;;;24.17;;
9972;SDS011;5027;53.560;10.062;2023-07-29T05:26:35;26.80;;;24.30;;
9972;SDS011;5027;53.560;10.062;2023-07-29T05:29:02;27.77;;;25.37;;
9972;SDS011;5027;53.560;10.062;2023-07-29T05:31:30;26.73;;;24.37;;
9972;SDS011;5027;53.560;10.062;2023-07-29T05:33:58;28.00;;;25.40;;
9972;SDS011;5027;53.560;10.062;2023-07-29T05:36:25;29.33;;;25.80;;
9972;SDS011;5027;53.560;10.062;2023-07-29T05:38:52;29.20;;;26.70;;
9972;SDS011;5027;53.560;10.062;2023-07-29T05:41:19;29.43;;;26.87;;
9972;SDS011;5027;53.560;10.062;2023-07-29T05:43:46;27.87;;;25.27;;
9972;SDS011;5027;53.560;10.062;2023-07-29T05:46:12;29.97;;;27.37;;
9972;SDS011;5027;53.560;10.062;2023-07-29T05:48:39;29.50;;;26.90;;
9972;SDS011;5027;53.560;10.062;2023-07-29T05:51:06;30.63;;;27.87;;
9972;SDS011;5027;53.560;10.062;2023-07-29T05:53:34;31.00;;;28.40;;
9972;SDS011;5027;53.560;10.062;2023-07-29T05:56:00;31.07;;;28.33;;
9972;SDS011;5027;53.560;10.062;2023-07-29T05:58:27;29.97;;;27.27;;
9972;SDS011;5027;53.560;10.062;2023-07-29T06:00:54;27.40;;;25.00;;
9972;SDS011;5027;53.560;10.062;2023-07-29T06:03:21;28.13;;;25.63;;
9972;SDS011;5027;53.560;10.062;2023-07-29T06:05:50;26.43;;;24.03;;
9972;SDS011;5027;53.560;10.062;2023-07-29T06:08:20;25.23;;;22.80;;
9972;SDS011;5027;53.560;10.062;2023-07-29T06:10:47;22.97;;;20.97;;
9972;SDS011;5027;53.560;10.062;2023-07-29T06:13:13;22.40;;;20.33;;
9972;SDS011;5027;53.560;10.062;2023-07-29T06:15:40;20.43;;;18.53;;
9972;SDS011;5027;53.560;10.062;2023-07-29T06:18:07;21.73;;;19.73;;
9972;SDS011;5027;53.560;10.062;2023-07-29T06:20:33;20.73;;;18.83;;
9972;SDS011;5027;53.560;10.062;2023-07-29T06:23:00;20.43;;;18.73;;
9972;SDS011;5027;53.560;10.062;2023-07-29T06:25:28;19.47;;;17.87;;
9972;SDS011;5027;53.560;10.062;2023-07-29T06:27:55;21.57;;;19.47;;
9972;SDS011;5027;53.560;10.062;2023-07-29T06:30:21;20.80;;;18.90;;
9972;SDS011;5027;53.560;10.062;2023-07-29T06:32:48;20.10;;;18.20;;
9972;SDS011;5027;53.560;10.062;2023-07-29T06:35:15;20.53;;;18.57;;
9972;SDS011;5027;53.560;10.062;2023-07-29T06:37:42;20.90;;;18.90;;
9972;SDS011;5027;53.560;10.062;2023-07-29T06:40:08;20.80;;;18.60;;
9972;SDS011;5027;53.560;10.062;2023-07-29T06:42:35;20.20;;;18.30;;
9972;SDS011;5027;53.560;10.062;2023-07-29T06:45:04;20.27;;;18.03;;
9972;SDS011;5027;53.560;10.062;2023-07-29T06:47:31;20.20;;;18.13;;
9972;SDS011;5027;53.560;10.062;2023-07-29T06:49:58;20.57;;;18.77;;
9972;SDS011;5027;53.560;10.062;2023-07-29T06:52:25;21.87;;;19.67;;
9972;SDS011;5027;53.560;10.062;2023-07-29T06:54:51;22.17;;;19.83;;
9972;SDS011;5027;53.560;10.062;2023-07-29T06:57:18;21.77;;;19.67;;
9972;SDS011;5027;53.560;10.062;2023-07-29T06:59:45;21.20;;;18.93;;
9972;SDS011;5027;53.560;10.062;2023-07-29T07:02:11;20.67;;;18.77;;
9972;SDS011;5027;53.560;10.062;2023-07-29T07:04:38;20.40;;;18.60;;
9972;SDS011;5027;53.560;10.062;2023-07-29T07:07:05;20.40;;;18.40;;
9972;SDS011;5027;53.560;10.062;2023-07-29T07:09:31;20.03;;;18.13;;
9972;SDS011;5027;53.560;10.062;2023-07-29T07:11:58;20.67;;;18.77;;
9972;SDS011;5027;53.560;10.062;2023-07-29T07:14:25;21.50;;;19.40;;
9972;SDS011;5027;53.560;10.062;2023-07-29T07:16:51;20.27;;;18.47;;
9972;SDS011;5027;53.560;10.062;2023-07-29T07:19:18;19.83;;;17.90;;
9972;SDS011;5027;53.560;10.062;2023-07-29T07:21:45;19.47;;;17.57;;
9972;SDS011;5027;53.560;10.062;2023-07-29T07:24:11;22.27;;;20.17;;
9972;SDS011;5027;53.560;10.062;2023-07-29T07:26:38;21.83;;;19.80;;
9972;SDS011;5027;53.560;10.062;2023-07-29T07:29:05;20.30;;;18.47;;
9972;SDS011;5027;53.560;10.062;2023-07-29T07:31:33;20.50;;;18.67;;
9972;SDS011;5027;53.560;10.062;2023-07-29T07:34:00;20.53;;;18.73;;
9972;SDS011;5027;53.560;10.062;2023-07-29T07:36:28;20.57;;;18.57;;
9972;SDS011;5027;53.560;10.062;2023-07-29T07:38:55;20.10;;;18.20;;
9972;SDS011;5027;53.560;10.062;2023-07-29T07:41:22;20.97;;;18.93;;
9972;SDS011;5027;53.560;10.062;2023-07-29T07:43:50;19.30;;;17.60;;
9972;SDS011;5027;53.560;10.062;2023-07-29T07:46:16;19.50;;;17.17;;
9972;SDS011;5027;53.560;10.062;2023-07-29T07:48:43;18.97;;;17.37;;
9972;SDS011;5027;53.560;10.062;2023-07-29T07:51:10;17.67;;;16.07;;
9972;SDS011;5027;53.560;10.062;2023-07-29T07:53:38;20.10;;;15.70;;
9972;SDS011;5027;53.560;10.062;2023-07-29T07:56:06;18.07;;;16.17;;
9972;SDS011;5027;53.560;10.062;2023-07-29T07:58:33;16.80;;;15.07;;
9972;SDS011;5027;53.560;10.062;2023-07-29T08:01:02;16.50;;;14.80;;
9972;SDS011;5027;53.560;10.062;2023-07-29T08:03:33;14.73;;;13.43;;
9972;SDS011;5027;53.560;10.062;2023-07-29T08:06:00;14.10;;;12.60;;
9972;SDS011;5027;53.560;10.062;2023-07-29T08:08:28;14.40;;;13.10;;
9972;SDS011;5027;53.560;10.062;2023-07-29T08:10:55;15.63;;;13.03;;
9972;SDS011;5027;53.560;10.062;2023-07-29T08:13:23;13.87;;;12.53;;
9972;SDS011;5027;53.560;10.062;2023-07-29T08:15:51;13.77;;;12.47;;
9972;SDS011;5027;53.560;10.062;2023-07-29T08:18:19;13.20;;;11.97;;
9972;SDS011;5027;53.560;10.062;2023-07-29T08:20:53;12.73;;;11.43;;
9972;SDS011;5027;53.560;10.062;2023-07-29T08:23:21;12.17;;;11.07;;
9972;SDS011;5027;53.560;10.062;2023-07-29T08:25:54;13.33;;;11.90;;
9972;SDS011;5027;53.560;10.062;2023-07-29T08:28:27;13.43;;;12.27;;
9972;SDS011;5027;53.560;10.062;2023-07-29T08:30:55;10.73;;;9.63;;
9972;SDS011;5027;53.560;10.062;2023-07-29T08:33:21;13.20;;;11.93;;
9972;SDS011;5027;53.560;10.062;2023-07-29T08:35:48;12.17;;;11.17;;
9972;SDS011;5027;53.560;10.062;2023-07-29T08:38:15;11.90;;;10.90;;
9972;SDS011;5027;53.560;10.062;2023-07-29T08:40:42;12.13;;;11.03;;
9972;SDS011;5027;53.560;10.062;2023-07-29T08:43:29;12.10;;;11.00;;
9972;SDS011;5027;53.560;10.062;2023-07-29T08:45:59;10.83;;;9.93;;
9972;SDS011;5027;53.560;10.062;2023-07-29T08:48:44;12.23;;;11.23;;
9972;SDS011;5027;53.560;10.062;2023-07-29T08:51:12;9.53;;;8.63;;
9972;SDS011;5027;53.560;10.062;2023-07-29T08:53:39;12.77;;;11.77;;
9972;SDS011;5027;53.560;10.062;2023-07-29T08:56:06;10.47;;;9.60;;
9972;SDS011;5027;53.560;10.062;2023-07-29T08:58:33;10.17;;;9.20;;
9972;SDS011;5027;53.560;10.062;2023-07-29T09:01:01;6.53;;;6.03;;
9972;SDS011;5027;53.560;10.062;2023-07-29T09:03:28;12.57;;;11.47;;
9972;SDS011;5027;53.560;10.062;2023-07-29T09:05:55;11.97;;;10.97;;
9972;SDS011;5027;53.560;10.062;2023-07-29T09:08:24;12.97;;;11.87;;
9972;SDS011;5027;53.560;10.062;2023-07-29T09:10:54;11.87;;;10.70;;
9972;SDS011;5027;53.560;10.062;2023-07-29T09:13:21;11.47;;;10.47;;
9972;SDS011;5027;53.560;10.062;2023-07-29T09:15:48;13.07;;;11.97;;
9972;SDS011;5027;53.560;10.062;2023-07-29T09:18:16;16.87;;;12.73;;
9972;SDS011;5027;53.560;10.062;2023-07-29T09:20:49;14.60;;;12.87;;
9972;SDS011;5027;53.560;10.062;2023-07-29T09:23:16;14.83;;;13.30;;
9972;SDS011;5027;53.560;10.062;2023-07-29T09:25:43;12.57;;;11.33;;
9972;SDS011;5027;53.560;10.062;2023-07-29T09:28:13;13.30;;;12.20;;
9972;SDS011;5027;53.560;10.062;2023-07-29T09:30:42;13.37;;;12.17;;
9972;SDS011;5027;53.560;10.062;2023-07-29T09:33:11;11.90;;;10.83;;
9972;SDS011;5027;53.560;10.062;2023-07-29T09:35:38;12.17;;;11.07;;
9972;SDS011;5027;53.560;10.062;2023-07-29T09:38:05;10.77;;;9.87;;
9972;SDS011;5027;53.560;10.062;2023-07-29T09:40:37;13.83;;;10.40;;
9972;SDS011;5027;53.560;10.062;2023-07-29T09:43:04;11.70;;;10.60;;
9972;SDS011;5027;53.560;10.062;2023-07-29T09:45:33;11.20;;;10.00;;
9972;SDS011;5027;53.560;10.062;2023-07-29T09:48:02;12.13;;;11.03;;
9972;SDS011;5027;53.560;10.062;2023-07-29T09:50:31;11.87;;;10.77;;
9972;SDS011;5027;53.560;10.062;2023-07-29T09:52:57;10.83;;;9.90;;
9972;SDS011;5027;53.560;10.062;2023-07-29T09:55:25;16.77;;;15.27;;
9972;SDS011;5027;53.560;10.062;2023-07-29T09:57:55;11.03;;;10.03;;
9972;SDS011;5027;53.560;10.062;2023-07-29T10:00:24;12.27;;;11.00;;
9972;SDS011;5027;53.560;10.062;2023-07-29T10:02:50;6.70;;;6.07;;
9972;SDS011;5027;53.560;10.062;2023-07-29T10:05:19;9.80;;;8.90;;
9972;SDS011;5027;53.560;10.062;2023-07-29T10:07:47;8.33;;;7.57;;
9972;SDS011;5027;53.560;10.062;2023-07-29T10:10:15;10.53;;;9.43;;
9972;SDS011;5027;53.560;10.062;2023-07-29T10:12:43;8.20;;;7.50;;
9972;SDS011;5027;53.560;10.062;2023-07-29T10:15:10;7.70;;;6.97;;
9972;SDS011;5027;53.560;10.062;2023-07-29T10:17:37;8.63;;;7.80;;
9972;SDS011;5027;53.560;10.062;2023-07-29T10:20:06;8.90;;;8.00;;
9972;SDS011;5027;53.560;10.062;2023-07-29T10:22:38;7.73;;;7.03;;
9972;SDS011;5027;53.560;10.062;2023-07-29T10:25:07;7.07;;;6.30;;
9972;SDS011;5027;53.560;10.062;2023-07-29T10:27:42;6.40;;;5.90;;
9972;SDS011;5027;53.560;10.062;2023-07-29T10:30:13;5.87;;;5.10;;
9972;SDS011;5027;53.560;10.062;2023-07-29T10:32:43;5.17;;;4.67;;
9972;SDS011;5027;53.560;10.062;2023-07-29T10:35:12;6.77;;;5.20;;
9972;SDS011;5027;53.560;10.062;2023-07-29T10:37:39;5.63;;;5.00;;
9972;SDS011;5027;53.560;10.062;2023-07-29T10:40:09;13.37;;;4.80;;
9972;SDS011;5027;53.560;10.062;2023-07-29T10:42:38;4.63;;;4.23;;
9972;SDS011;5027;53.560;10.062;2023-07-29T10:45:17;7.47;;;4.47;;
9972;SDS011;5027;53.560;10.062;2023-07-29T10:47:48;6.20;;;4.37;;
9972;SDS011;5027;53.560;10.062;2023-07-29T10:50:21;4.13;;;3.70;;
9972;SDS011;5027;53.560;10.062;2023-07-29T10:52:49;3.93;;;3.63;;
9972;SDS011;5027;53.560;10.062;2023-07-29T10:55:27;4.27;;;3.87;;
9972;SDS011;5027;53.560;10.062;2023-07-29T10:58:12;6.17;;;4.23;;
9972;SDS011;5027;53.560;10.062;2023-07-29T11:00:46;5.50;;;4.67;;
9972;SDS011;5027;53.560;10.062;2023-07-29T11:03:13;6.93;;;4.53;;
9972;SDS011;5027;53.560;10.062;2023-07-29T11:05:50;5.43;;;4.20;;
9972;SDS011;5027;53.560;10.062;2023-07-29T11:11:06;5.17;;;3.97;;
9972;SDS011;5027;53.560;10.062;2023-07-29T11:13:37;3.97;;;3.57;;
9972;SDS011;5027;53.560;10.062;2023-07-29T11:16:05;4.33;;;3.90;;
9972;SDS011;5027;53.560;10.062;2023-07-29T11:18:33;3.73;;;3.13;;
9972;SDS011;5027;53.560;10.062;2023-07-29T11:21:02;4.27;;;3.87;;
9972;SDS011;5027;53.560;10.062;2023-07-29T11:23:30;4.53;;;3.97;;
9972;SDS011;5027;53.560;10.062;2023-07-29T11:26:01;3.47;;;3.00;;
9972;SDS011;5027;53.560;10.062;2023-07-29T11:28:29;8.13;;;4.73;;
9972;SDS011;5027;53.560;10.062;2023-07-29T11:30:56;3.93;;;3.27;;
9972;SDS011;5027;53.560;10.062;2023-07-29T11:33:24;3.50;;;3.20;;
9972;SDS011;5027;53.560;10.062;2023-07-29T11:35:54;5.43;;;3.63;;
9972;SDS011;5027;53.560;10.062;2023-07-29T11:38:22;3.97;;;3.00;;
9972;SDS011;5027;53.560;10.062;2023-07-29T11:40:56;5.40;;;3.50;;
9972;SDS011;5027;53.560;10.062;2023-07-29T11:43:24;4.00;;;3.57;;
9972;SDS011;5027;53.560;10.062;2023-07-29T11:45:53;8.83;;;4.20;;
9972;SDS011;5027;53.560;10.062;2023-07-29T11:48:27;6.03;;;4.23;;
9972;SDS011;5027;53.560;10.062;2023-07-29T11:50:54;6.93;;;4.90;;
9972;SDS011;5027;53.560;10.062;2023-07-29T11:53:21;4.27;;;3.53;;
9972;SDS011;5027;53.560;10.062;2023-07-29T11:55:51;3.90;;;3.50;;
9972;SDS011;5027;53.560;10.062;2023-07-29T11:58:20;4.40;;;4.00;;
9972;SDS011;5027;53.560;10.062;2023-07-29T12:00:47;5.07;;;4.00;;
9972;SDS011;5027;53.560;10.062;2023-07-29T12:03:16;7.53;;;4.60;;
9972;SDS011;5027;53.560;10.062;2023-07-29T12:05:44;6.57;;;3.70;;
9972;SDS011;5027;53.560;10.062;2023-07-29T12:08:11;6.00;;;4.13;;
9972;SDS011;5027;53.560;10.062;2023-07-29T12:10:38;8.27;;;4.37;;
9972;SDS011;5027;53.560;10.062;2023-07-29T12:13:05;4.50;;;4.10;;
9972;SDS011;5027;53.560;10.062;2023-07-29T12:15:34;4.90;;;4.13;;
9972;SDS011;5027;53.560;10.062;2023-07-29T12:18:01;4.83;;;3.50;;
9972;SDS011;5027;53.560;10.062;2023-07-29T12:20:29;4.67;;;4.07;;
9972;SDS011;5027;53.560;10.062;2023-07-29T12:22:56;6.23;;;3.53;;
9972;SDS011;5027;53.560;10.062;2023-07-29T12:25:25;5.07;;;3.50;;
9972;SDS011;5027;53.560;10.062;2023-07-29T12:27:53;7.53;;;4.23;;
9972;SDS011;5027;53.560;10.062;2023-07-29T12:30:20;3.50;;;3.27;;
9972;SDS011;5027;53.560;10.062;2023-07-29T12:32:48;5.97;;;3.93;;
9972;SDS011;5027;53.560;10.062;2023-07-29T12:35:15;6.97;;;3.50;;
9972;SDS011;5027;53.560;10.062;2023-07-29T12:37:42;3.87;;;3.47;;
9972;SDS011;5027;53.560;10.062;2023-07-29T12:40:22;4.00;;;3.43;;
9972;SDS011;5027;53.560;10.062;2023-07-29T12:42:52;3.83;;;3.20;;
9972;SDS011;5027;53.560;10.062;2023-07-29T12:45:20;4.30;;;3.50;;
9972;SDS011;5027;53.560;10.062;2023-07-29T12:47:49;3.40;;;3.10;;
9972;SDS011;5027;53.560;10.062;2023-07-29T12:50:16;4.33;;;3.10;;
9972;SDS011;5027;53.560;10.062;2023-07-29T12:52:43;3.40;;;3.10;;
9972;SDS011;5027;53.560;10.062;2023-07-29T12:55:10;8.17;;;2.70;;
9972;SDS011;5027;53.560;10.062;2023-07-29T12:57:41;3.93;;;3.03;;
9972;SDS011;5027;53.560;10.062;2023-07-29T13:00:09;3.10;;;2.37;;
9972;SDS011;5027;53.560;10.062;2023-07-29T13:02:36;3.00;;;2.60;;
9972;SDS011;5027;53.560;10.062;2023-07-29T13:05:03;4.33;;;3.17;;
9972;SDS011;5027;53.560;10.062;2023-07-29T13:07:30;2.93;;;2.63;;
9972;SDS011;5027;53.560;10.062;2023-07-29T13:09:57;2.57;;;2.37;;
9972;SDS011;5027;53.560;10.062;2023-07-29T13:12:23;2.80;;;2.60;;
9972;SDS011;5027;53.560;10.062;2023-07-29T13:14:50;2.87;;;2.67;;
9972;SDS011;5027;53.560;10.062;2023-07-29T13:17:17;3.97;;;3.10;;
9972;SDS011;5027;53.560;10.062;2023-07-29T13:19:44;4.53;;;3.23;;
9972;SDS011;5027;53.560;10.062;2023-07-29T13:22:13;2.83;;;2.47;;
9972;SDS011;5027;53.560;10.062;2023-07-29T13:24:40;7.20;;;4.23;;
9972;SDS011;5027;53.560;10.062;2023-07-29T13:27:07;6.07;;;3.13;;
9972;SDS011;5027;53.560;10.062;2023-07-29T13:29:33;6.27;;;3.47;;
9972;SDS011;5027;53.560;10.062;2023-07-29T13:32:00;5.90;;;3.27;;
9972;SDS011;5027;53.560;10.062;2023-07-29T13:34:28;8.80;;;4.40;;
9972;SDS011;5027;53.560;10.062;2023-07-29T13:36:55;4.73;;;2.40;;
9972;SDS011;5027;53.560;10.062;2023-07-29T13:39:21;2.77;;;2.20;;
9972;SDS011;5027;53.560;10.062;2023-07-29T13:41:48;7.30;;;5.80;;
9972;SDS011;5027;53.560;10.062;2023-07-29T13:44:15;7.60;;;3.47;;
9972;SDS011;5027;53.560;10.062;2023-07-29T13:46:41;3.70;;;2.60;;
9972;SDS011;5027;53.560;10.062;2023-07-29T13:49:08;8.07;;;4.20;;
9972;SDS011;5027;53.560;10.062;2023-07-29T13:51:35;6.30;;;3.90;;
9972;SDS011;5027;53.560;10.062;2023-07-29T13:54:02;3.90;;;3.27;;
9972;SDS011;5027;53.560;10.062;2023-07-29T13:56:29;9.80;;;4.30;;
9972;SDS011;5027;53.560;10.062;2023-07-29T13:58:55;7.00;;;4.00;;
9972;SDS011;5027;53.560;10.062;2023-07-29T14:01:22;3.53;;;2.53;;
9972;SDS011;5027;53.560;10.062;2023-07-29T14:03:49;5.53;;;3.23;;
9972;SDS011;5027;53.560;10.062;2023-07-29T14:06:16;4.50;;;2.33;;
9972;SDS011;5027;53.560;10.062;2023-07-29T14:08:44;6.03;;;3.50;;
9972;SDS011;5027;53.560;10.062;2023-07-29T14:11:10;6.10;;;3.00;;
9972;SDS011;5027;53.560;10.062;2023-07-29T14:13:37;2.80;;;2.60;;
9972;SDS011;5027;53.560;10.062;2023-07-29T14:16:03;6.87;;;3.30;;
9972;SDS011;5027;53.560;10.062;2023-07-29T14:18:30;3.07;;;2.77;;
9972;SDS011;5027;53.560;10.062;2023-07-29T14:20:57;9.73;;;3.83;;
9972;SDS011;5027;53.560;10.062;2023-07-29T14:23:24;3.57;;;3.27;;
9972;SDS011;5027;53.560;10.062;2023-07-29T14:25:51;8.37;;;4.70;;
9972;SDS011;5027;53.560;10.062;2023-07-29T14:28:18;3.43;;;2.97;;
9972;SDS011;5027;53.560;10.062;2023-07-29T14:30:44;9.23;;;3.73;;
9972;SDS011;5027;53.560;10.062;2023-07-29T14:33:11;7.70;;;3.93;;
9972;SDS011;5027;53.560;10.062;2023-07-29T14:35:38;11.57;;;4.60;;
9972;SDS011;5027;53.560;10.062;2023-07-29T14:38:05;3.67;;;2.80;;
9972;SDS011;5027;53.560;10.062;2023-07-29T14:40:31;3.10;;;2.77;;
9972;SDS011;5027;53.560;10.062;2023-07-29T14:42:58;6.07;;;3.13;;
9972;SDS011;5027;53.560;10.062;2023-07-29T14:45:25;5.30;;;3.47;;
9972;SDS011;5027;53.560;10.062;2023-07-29T14:47:52;6.37;;;3.20;;
9972;SDS011;5027;53.560;10.062;2023-07-29T14:50:18;2.97;;;2.67;;
9972;SDS011;5027;53.560;10.062;2023-07-29T14:52:45;5.43;;;3.50;;
9972;SDS011;5027;53.560;10.062;2023-07-29T14:55:12;7.00;;;4.10;;
9972;SDS011;5027;53.560;10.062;2023-07-29T14:57:39;8.60;;;3.60;;
9972;SDS011;5027;53.560;10.062;2023-07-29T15:00:07;4.60;;;3.13;;
9972;SDS011;5027;53.560;10.062;2023-07-29T15:02:34;7.30;;;3.07;;
9972;SDS011;5027;53.560;10.062;2023-07-29T15:05:01;10.60;;;4.17;;